createdAt,value
2022-09-06T06:43:38.365Z,478.12
2022-09-06T06:44:38.326Z,506.25
2022-09-06T06:45:38.324Z,534.38
2022-09-06T06:46:38.320Z,551.25
2022-09-06T06:47:38.279Z,562.50
2022-09-06T06:48:38.270Z,590.62
2022-09-06T06:49:38.263Z,624.38
2022-09-06T06:50:38.248Z,641.25
2022-09-06T06:51:38.232Z,641.25
2022-09-06T06:52:38.230Z,635.62
2022-09-06T06:53:38.251Z,630.00
2022-09-06T06:54:38.222Z,607.50
2022-09-06T06:55:38.198Z,596.25
2022-09-06T06:56:41.182Z,590.62
2022-09-06T06:57:38.179Z,590.62
2022-09-06T06:58:38.224Z,613.12
2022-09-06T06:59:38.152Z,635.62
2022-09-06T07:00:38.187Z,658.12
2022-09-06T07:01:38.219Z,686.25
2022-09-06T07:02:38.112Z,703.12
2022-09-06T07:03:38.133Z,720.00
2022-09-06T07:04:38.094Z,736.88
2022-09-06T07:07:41.003Z,838.12
2022-09-06T07:08:38.054Z,933.75
2022-09-06T07:10:39.035Z,1164.38
2022-09-06T07:11:41.023Z,1153.12
2022-09-06T07:12:38.037Z,1068.75
2022-09-06T07:13:37.996Z,1479.38
2022-09-06T07:14:37.996Z,1423.12
2022-09-06T07:15:37.980Z,911.25
2022-09-06T07:16:38.073Z,843.75
2022-09-06T07:17:37.955Z,804.38
2022-09-06T07:18:37.952Z,939.38
2022-09-06T07:21:39.092Z,697.50
2022-09-06T07:22:37.918Z,686.25
2022-09-06T07:24:38.910Z,720.00
2022-09-06T07:25:37.881Z,753.75
2022-09-06T07:26:40.897Z,736.88
2022-09-06T07:28:37.880Z,731.25
2022-09-06T07:29:37.829Z,708.75
2022-09-06T07:30:37.823Z,697.50
2022-09-06T07:32:38.805Z,697.50
2022-09-06T07:33:37.781Z,708.75
2022-09-06T07:34:37.789Z,731.25
2022-09-06T07:35:37.764Z,753.75
2022-09-06T07:36:37.770Z,770.62
2022-09-06T07:37:37.760Z,781.88
2022-09-06T07:38:37.735Z,787.50
2022-09-06T07:39:37.856Z,793.12
2022-09-06T07:40:37.723Z,832.50
2022-09-06T07:41:40.705Z,1293.75
2022-09-06T07:42:37.707Z,1260.00
2022-09-06T07:43:37.688Z,1040.62
2022-09-06T07:44:37.708Z,748.12
2022-09-06T07:45:37.657Z,708.75
2022-09-06T07:46:37.731Z,686.25
2022-09-06T07:48:38.627Z,742.50
2022-09-06T07:49:37.868Z,635.62
2022-09-06T07:50:55.885Z,613.12
2022-09-06T07:51:37.598Z,585.00
2022-09-06T07:53:38.582Z,466.88
2022-09-06T07:54:37.608Z,466.88
2022-09-06T07:55:37.553Z,483.75
2022-09-06T07:56:40.541Z,506.25
2022-09-06T07:57:37.554Z,528.75
2022-09-06T07:58:37.531Z,551.25
2022-09-06T07:59:41.198Z,568.12
2022-09-06T08:00:37.570Z,545.62
2022-09-06T08:01:37.507Z,511.88
2022-09-06T08:02:37.522Z,461.25
2022-09-06T08:03:37.475Z,416.25
2022-09-06T08:04:37.469Z,382.50
2022-09-06T08:07:38.732Z,320.62
2022-09-06T08:09:38.420Z,281.25
2022-09-06T08:10:37.411Z,264.38
2022-09-06T08:11:40.395Z,253.12
2022-09-06T08:12:37.517Z,236.25
2022-09-06T08:13:37.372Z,219.38
2022-09-06T08:14:37.376Z,196.88
2022-09-06T08:15:41.488Z,180.00
2022-09-06T08:16:37.406Z,163.12
2022-09-06T08:17:37.368Z,146.25
2022-09-06T08:18:37.319Z,129.38
2022-09-06T08:19:37.311Z,123.75
2022-09-06T08:20:37.302Z,112.50
2022-09-06T08:21:37.296Z,112.50
2022-09-06T08:22:37.281Z,101.25
2022-09-06T08:23:37.273Z,101.25
2022-09-06T08:24:37.263Z,95.62
2022-09-06T08:25:37.245Z,101.25
2022-09-06T08:26:40.237Z,106.88
2022-09-06T08:27:37.238Z,118.12
2022-09-06T08:28:37.262Z,129.38
2022-09-06T08:30:37.206Z,146.25
2022-09-06T08:31:37.250Z,157.50
2022-09-06T08:32:37.183Z,168.75
2022-09-06T08:33:37.173Z,185.62
2022-09-06T08:34:37.160Z,196.88
2022-09-06T08:35:37.156Z,213.75
2022-09-06T08:36:37.134Z,236.25
2022-09-06T08:37:37.126Z,270.00
2022-09-06T08:38:37.116Z,303.75
2022-09-06T08:39:37.310Z,348.75
2022-09-06T08:40:37.114Z,388.12
2022-09-06T08:41:40.077Z,421.88
2022-09-06T08:42:37.109Z,421.88
2022-09-06T08:43:37.066Z,410.62
2022-09-06T08:45:38.042Z,371.25
2022-09-06T08:46:37.069Z,360.00
2022-09-06T08:47:37.011Z,360.00
2022-09-06T08:48:37.021Z,365.62
2022-09-06T08:49:37.110Z,371.25
2022-09-06T08:50:36.990Z,388.12
2022-09-06T08:51:38.558Z,421.88
2022-09-06T08:52:41.756Z,466.88
2022-09-06T08:53:37.954Z,506.25
2022-09-06T08:54:36.942Z,562.50
2022-09-06T08:55:36.930Z,607.50
2022-09-06T08:56:39.922Z,652.50
2022-09-06T08:57:40.147Z,686.25
2022-09-06T08:58:36.900Z,691.88
2022-09-06T08:59:36.924Z,703.12
2022-09-06T09:00:36.902Z,708.75
2022-09-06T09:01:36.907Z,720.00
2022-09-06T09:02:36.894Z,720.00
2022-09-06T09:03:36.854Z,714.38
2022-09-06T09:04:36.836Z,708.75
2022-09-06T09:05:36.830Z,708.75
2022-09-06T09:06:36.814Z,714.38
2022-09-06T09:07:36.874Z,736.88
2022-09-06T09:08:36.797Z,759.38
2022-09-06T09:09:36.799Z,770.62
2022-09-06T09:10:36.776Z,793.12
2022-09-06T09:11:39.756Z,810.00
2022-09-06T09:12:36.898Z,826.88
2022-09-06T09:13:36.743Z,832.50
2022-09-06T09:14:36.731Z,826.88
2022-09-06T09:15:40.238Z,815.62
2022-09-06T09:16:36.836Z,781.88
2022-09-06T09:17:36.700Z,725.62
2022-09-06T09:18:36.705Z,669.38
2022-09-06T09:19:36.693Z,618.75
2022-09-06T09:20:36.672Z,579.38
2022-09-06T09:21:36.658Z,562.50
2022-09-06T09:22:36.690Z,551.25
2022-09-06T09:23:36.639Z,540.00
2022-09-06T09:24:36.630Z,540.00
2022-09-06T09:25:36.625Z,545.62
2022-09-06T09:26:39.592Z,579.38
2022-09-06T09:27:36.612Z,618.75
2022-09-06T09:28:36.580Z,658.12
2022-09-06T09:29:36.578Z,714.38
2022-09-06T09:30:53.009Z,765.00
2022-09-06T09:31:36.674Z,776.25
2022-09-06T09:32:36.545Z,765.00
2022-09-06T09:33:36.590Z,753.75
2022-09-06T09:34:36.525Z,787.50
2022-09-06T09:35:36.515Z,849.38
2022-09-06T09:36:36.505Z,916.88
2022-09-06T09:38:36.477Z,1063.12
2022-09-06T09:39:36.499Z,1130.62
2022-09-06T09:40:36.457Z,1231.88
2022-09-06T09:41:39.458Z,1338.75
2022-09-06T09:42:36.538Z,1462.50
2022-09-06T09:43:36.428Z,1625.62
2022-09-06T09:44:36.424Z,1760.62
2022-09-06T09:45:36.403Z,2728.12
2022-09-06T09:46:36.450Z,1653.75
2022-09-06T09:47:36.391Z,1665.00
2022-09-06T09:48:36.371Z,1755.00
2022-09-06T09:49:36.367Z,1676.25
2022-09-06T09:50:36.367Z,1620.00
2022-09-06T09:51:36.343Z,2030.62
2022-09-06T09:52:36.333Z,3369.38
2022-09-06T09:53:36.432Z,3425.62
2022-09-06T09:54:36.317Z,1743.75
2022-09-06T09:55:36.311Z,2266.88
2022-09-06T09:56:39.319Z,3009.38
2022-09-06T09:57:36.334Z,3285.00
2022-09-06T09:58:36.275Z,3296.25
2022-09-06T09:59:36.270Z,1906.88
2022-09-06T10:00:36.328Z,2143.12
2022-09-06T10:01:36.238Z,2418.75
2022-09-06T10:02:36.277Z,1783.12
2022-09-06T10:04:44.950Z,2098.12
2022-09-06T10:05:36.217Z,1462.50
2022-09-06T10:07:37.220Z,1276.88
2022-09-06T10:08:36.168Z,1276.88
2022-09-06T10:09:36.161Z,1271.25
2022-09-06T10:10:36.157Z,1243.12
2022-09-06T10:11:39.178Z,1254.38
2022-09-06T10:12:36.138Z,1260.00
2022-09-06T10:13:36.118Z,1282.50
2022-09-06T10:14:36.108Z,1327.50
2022-09-06T10:15:36.093Z,3324.38
2022-09-06T10:16:36.232Z,3960.00
2022-09-06T10:17:36.070Z,4044.38
2022-09-06T10:18:36.063Z,3948.75
2022-09-06T10:19:36.068Z,3498.75
2022-09-06T10:20:36.040Z,4325.62
2022-09-06T10:21:36.029Z,2885.62
2022-09-06T10:22:36.022Z,2025.00
2022-09-06T10:24:37.005Z,1850.62
2022-09-06T10:25:35.997Z,2019.38
2022-09-06T10:26:38.981Z,2801.25
2022-09-06T10:27:36.086Z,3853.12
2022-09-06T10:28:36.954Z,3870.00
2022-09-06T10:29:35.954Z,4455.00
2022-09-06T10:30:36.060Z,2986.88
2022-09-06T10:31:35.967Z,3633.75
2022-09-06T10:32:35.924Z,3937.50
2022-09-06T10:33:35.907Z,3960.00
2022-09-06T10:34:35.897Z,3723.75
2022-09-06T10:35:35.884Z,3268.12
2022-09-06T10:36:35.877Z,3200.62
2022-09-06T10:37:35.866Z,2047.50
2022-09-06T10:38:35.848Z,3217.50
2022-09-06T10:39:35.904Z,3262.50
2022-09-06T10:40:35.836Z,2491.88
2022-09-06T10:41:38.938Z,2514.38
2022-09-06T10:42:35.830Z,2311.88
2022-09-06T10:43:35.800Z,2160.00
2022-09-06T10:44:35.790Z,1901.25
2022-09-06T10:45:35.774Z,2666.25
2022-09-06T10:46:35.934Z,2655.00
2022-09-06T10:47:35.752Z,2615.62
2022-09-06T10:48:35.742Z,2930.62
2022-09-06T10:49:39.622Z,2913.75
2022-09-06T10:50:35.721Z,3003.75
2022-09-06T10:51:35.735Z,3105.00
2022-09-06T10:52:35.696Z,3054.38
2022-09-06T10:53:35.696Z,3335.62
2022-09-06T10:54:35.692Z,3279.38
2022-09-06T10:55:35.667Z,3313.12
2022-09-06T10:56:38.705Z,3088.12
2022-09-06T10:59:37.746Z,3667.50
2022-09-06T11:00:35.617Z,3628.12
2022-09-06T11:01:35.755Z,3425.62
2022-09-06T11:02:35.880Z,4410.00
2022-09-06T11:06:35.648Z,2323.12
2022-09-06T11:07:35.729Z,2385.00
2022-09-06T11:08:53.316Z,2176.88
2022-09-06T11:09:35.611Z,1940.62
2022-09-06T11:10:35.509Z,1800.00
2022-09-06T11:11:38.601Z,1681.88
2022-09-06T11:12:35.504Z,1704.38
2022-09-06T11:13:35.471Z,1676.25
2022-09-06T11:14:35.473Z,1681.88
2022-09-06T11:15:35.499Z,1518.75
2022-09-06T11:16:35.475Z,1468.12
2022-09-06T11:17:35.444Z,1383.75
2022-09-06T11:18:35.423Z,1344.38
2022-09-06T11:19:35.415Z,1321.88
2022-09-06T11:20:35.406Z,1310.62
2022-09-06T11:21:35.386Z,1305.00
2022-09-06T11:22:35.377Z,1299.38
2022-09-06T11:23:35.377Z,1276.88
2022-09-06T11:24:35.368Z,1254.38
2022-09-06T11:25:35.356Z,1226.25
2022-09-06T11:26:38.342Z,1198.12
2022-09-06T11:27:35.347Z,1147.50
2022-09-06T11:28:35.320Z,1102.50
2022-09-06T11:29:35.317Z,1057.50
2022-09-06T11:30:35.302Z,1018.12
2022-09-06T11:32:36.274Z,950.62
2022-09-06T11:33:35.267Z,911.25
2022-09-06T11:34:35.251Z,883.12
2022-09-06T11:35:35.250Z,849.38
2022-09-06T11:36:35.264Z,798.75
2022-09-06T11:37:35.235Z,759.38
2022-09-06T11:38:35.250Z,714.38
2022-09-06T11:40:36.194Z,635.62
2022-09-06T11:41:38.173Z,590.62
2022-09-06T11:42:35.175Z,545.62
2022-09-06T11:43:35.157Z,500.62
2022-09-06T11:44:35.156Z,472.50
2022-09-06T11:45:35.135Z,438.75
2022-09-06T11:46:35.162Z,421.88
2022-09-06T11:47:35.165Z,405.00
2022-09-06T11:48:35.135Z,388.12
2022-09-06T11:49:35.095Z,376.88
2022-09-06T11:50:35.084Z,360.00
2022-09-06T11:51:35.075Z,348.75
2022-09-06T11:52:35.075Z,326.25
2022-09-06T11:53:35.062Z,309.38
2022-09-06T11:54:35.029Z,292.50
2022-09-06T11:55:35.036Z,275.62
2022-09-06T11:56:38.021Z,258.75
2022-09-06T11:57:35.067Z,241.88
2022-09-06T11:58:35.013Z,225.00
2022-09-06T11:59:35.034Z,213.75
2022-09-06T12:00:34.978Z,196.88
2022-09-06T12:01:34.982Z,185.62
2022-09-06T12:02:35.063Z,180.00
2022-09-06T12:04:35.973Z,163.12
2022-09-06T12:05:34.922Z,151.88
2022-09-06T12:06:34.915Z,140.62
2022-09-06T12:07:34.903Z,135.00
2022-09-06T12:08:34.894Z,129.38
2022-09-06T12:09:34.903Z,123.75
2022-09-06T12:10:34.878Z,118.12
2022-09-06T12:11:37.864Z,112.50
2022-09-06T12:12:34.872Z,112.50
2022-09-06T12:13:34.837Z,106.88
2022-09-06T12:14:34.830Z,106.88
2022-09-06T12:15:34.900Z,101.25
2022-09-06T12:16:34.807Z,101.25
2022-09-06T12:17:34.798Z,101.25
2022-09-06T12:18:34.790Z,101.25
2022-09-06T12:19:34.827Z,101.25
2022-09-06T12:20:34.766Z,95.62
2022-09-06T12:21:34.759Z,95.62
2022-09-06T12:22:34.749Z,95.62
2022-09-06T12:23:34.741Z,95.62
2022-09-06T12:24:34.729Z,95.62
2022-09-06T12:25:34.708Z,95.62
2022-09-06T12:26:37.708Z,90.00
2022-09-06T12:27:34.712Z,90.00
2022-09-06T12:28:34.704Z,90.00
2022-09-06T12:29:34.690Z,90.00
2022-09-06T12:30:34.701Z,90.00
2022-09-06T12:31:34.754Z,90.00
2022-09-06T12:32:37.064Z,95.62
2022-09-06T12:33:34.645Z,95.62
2022-09-06T12:34:34.649Z,95.62
2022-09-06T12:36:35.653Z,95.62
2022-09-06T12:37:34.618Z,101.25
2022-09-06T12:38:34.589Z,101.25
2022-09-06T12:39:34.664Z,106.88
2022-09-06T12:40:34.558Z,106.88
2022-09-06T12:41:41.734Z,112.50
2022-09-06T12:42:34.549Z,112.50
2022-09-06T12:43:34.527Z,118.12
2022-09-06T12:44:34.532Z,123.75
2022-09-06T12:45:34.500Z,129.38
2022-09-06T12:46:34.560Z,135.00
2022-09-06T12:47:34.481Z,140.62
2022-09-06T12:48:34.522Z,146.25
2022-09-06T12:49:34.468Z,157.50
2022-09-06T12:50:34.464Z,168.75
2022-09-06T12:51:34.436Z,180.00
2022-09-06T12:52:34.442Z,196.88
2022-09-06T12:53:34.413Z,213.75
2022-09-06T12:54:34.412Z,236.25
2022-09-06T12:55:34.402Z,264.38
2022-09-06T12:56:37.398Z,303.75
2022-09-06T12:57:34.398Z,348.75
2022-09-06T12:58:34.368Z,405.00
2022-09-06T12:59:34.386Z,472.50
2022-09-06T13:00:34.353Z,545.62
2022-09-06T13:01:34.489Z,641.25
2022-09-06T13:02:34.418Z,742.50
2022-09-06T13:03:34.317Z,849.38
2022-09-06T13:04:34.337Z,956.25
2022-09-06T13:05:34.291Z,1035.00
2022-09-06T13:06:34.278Z,1085.62
2022-09-06T13:07:34.274Z,1125.00
2022-09-06T13:08:34.266Z,1170.00
2022-09-06T13:09:34.298Z,1209.38
2022-09-06T13:10:34.236Z,1293.75
2022-09-06T13:11:37.228Z,1310.62
2022-09-06T13:12:34.241Z,1271.25
2022-09-06T13:13:34.211Z,1260.00
2022-09-06T13:14:34.208Z,1220.62
2022-09-06T13:15:34.209Z,1175.62
2022-09-06T13:16:34.170Z,1125.00
2022-09-06T13:17:34.163Z,1074.38
2022-09-06T13:18:34.151Z,1035.00
2022-09-06T13:19:34.144Z,995.62
2022-09-06T13:20:34.188Z,956.25
2022-09-06T13:21:34.112Z,928.12
2022-09-06T13:22:34.113Z,922.50
2022-09-06T13:23:34.106Z,928.12
2022-09-06T13:24:34.090Z,945.00
2022-09-06T13:25:34.086Z,984.38
2022-09-06T13:26:37.063Z,1035.00
2022-09-06T13:27:34.074Z,1063.12
2022-09-06T13:28:34.052Z,1063.12
2022-09-06T13:29:34.037Z,1096.88
2022-09-06T13:30:34.035Z,1164.38
2022-09-06T13:31:34.108Z,1338.75
2022-09-06T13:32:34.008Z,1389.38
2022-09-06T13:33:34.000Z,1501.88
2022-09-06T13:34:33.982Z,1462.50
2022-09-06T13:35:33.997Z,1485.00
2022-09-06T13:36:33.972Z,1479.38
2022-09-06T13:37:33.959Z,1462.50
2022-09-06T13:38:33.943Z,1473.75
2022-09-06T13:39:33.976Z,1411.88
2022-09-06T13:40:37.755Z,1445.62
2022-09-06T13:41:37.909Z,1507.50
2022-09-06T13:42:33.918Z,1524.38
2022-09-06T13:43:33.895Z,1383.75
2022-09-06T13:44:33.877Z,1333.12
2022-09-06T13:45:33.868Z,1305.00
2022-09-06T13:46:33.982Z,1282.50
2022-09-06T13:47:33.903Z,1231.88
2022-09-06T13:48:33.842Z,1243.12
2022-09-06T13:49:33.833Z,1333.12
2022-09-06T13:50:33.814Z,1468.12
2022-09-06T13:51:33.804Z,1783.12
2022-09-06T13:52:33.794Z,1974.38
2022-09-06T13:53:33.783Z,1591.88
2022-09-06T13:54:33.774Z,1299.38
2022-09-06T13:55:33.765Z,1186.88
2022-09-06T13:56:36.745Z,1108.12
2022-09-06T13:57:33.748Z,1051.88
2022-09-06T13:58:33.899Z,995.62
2022-09-06T13:59:33.717Z,950.62
2022-09-06T14:00:33.720Z,900.00
2022-09-06T14:01:33.753Z,866.25
2022-09-06T14:02:33.716Z,838.12
2022-09-06T14:03:33.681Z,855.00
2022-09-06T14:04:33.674Z,905.62
2022-09-06T14:05:33.671Z,939.38
2022-09-06T14:06:36.784Z,956.25
2022-09-06T14:07:33.639Z,978.75
2022-09-06T14:08:49.711Z,984.38
2022-09-06T14:09:34.600Z,1231.88
2022-09-06T14:10:33.606Z,1119.38
2022-09-06T14:11:36.617Z,1096.88
2022-09-06T14:12:33.596Z,1091.25
2022-09-06T14:13:33.571Z,1091.25
2022-09-06T14:14:33.620Z,1147.50
2022-09-06T14:15:33.620Z,1383.75
2022-09-06T14:16:33.546Z,1074.38
2022-09-06T14:17:33.531Z,1006.88
2022-09-06T14:18:33.525Z,967.50
2022-09-06T14:19:33.522Z,933.75
2022-09-06T14:20:33.495Z,905.62
2022-09-06T14:21:33.485Z,883.12
2022-09-06T14:22:33.476Z,866.25
2022-09-06T14:23:33.465Z,866.25
2022-09-06T14:24:33.446Z,922.50
2022-09-06T14:25:33.490Z,922.50
2022-09-06T14:26:36.431Z,1063.12
2022-09-06T14:27:33.440Z,1057.50
2022-09-06T14:28:33.409Z,1091.25
2022-09-06T14:29:33.399Z,1186.88
2022-09-06T14:30:33.429Z,1366.88
2022-09-06T14:31:33.450Z,1749.38
2022-09-06T14:32:33.371Z,1563.75
2022-09-06T14:33:33.357Z,1209.38
2022-09-06T14:34:33.346Z,1108.12
2022-09-06T14:35:33.471Z,1035.00
2022-09-06T14:36:33.322Z,973.12
2022-09-06T14:37:33.310Z,900.00
2022-09-06T14:38:33.321Z,815.62
2022-09-06T14:39:33.334Z,725.62
2022-09-06T14:40:33.283Z,646.88
2022-09-06T14:41:36.272Z,579.38
2022-09-06T14:42:33.274Z,540.00
2022-09-06T14:43:33.252Z,517.50
2022-09-06T14:44:33.245Z,506.25
2022-09-06T14:45:33.236Z,495.00
2022-09-06T14:46:33.276Z,489.38
2022-09-06T14:47:33.211Z,472.50
2022-09-06T14:48:33.200Z,455.62
2022-09-06T14:49:33.176Z,438.75
2022-09-06T14:50:33.171Z,421.88
2022-09-06T14:51:33.394Z,405.00
2022-09-06T14:52:33.153Z,388.12
2022-09-06T14:53:40.366Z,376.88
2022-09-06T14:54:33.128Z,371.25
2022-09-06T14:55:33.117Z,371.25
2022-09-06T14:56:36.229Z,376.88
2022-09-06T14:57:33.115Z,382.50
2022-09-06T14:58:33.130Z,405.00
2022-09-06T14:59:33.082Z,433.12
2022-09-06T15:00:33.069Z,466.88
2022-09-06T15:01:38.118Z,489.38
2022-09-06T15:02:33.331Z,517.50
2022-09-06T15:03:33.030Z,540.00
2022-09-06T15:04:33.028Z,568.12
2022-09-06T15:05:33.011Z,590.62
2022-09-06T15:06:32.991Z,618.75
2022-09-06T15:07:32.993Z,652.50
2022-09-06T15:08:32.983Z,680.62
2022-09-06T15:09:32.993Z,742.50
2022-09-06T15:10:32.963Z,804.38
2022-09-06T15:11:35.942Z,804.38
2022-09-06T15:12:32.951Z,810.00
2022-09-06T15:13:33.003Z,900.00
2022-09-06T15:14:32.922Z,967.50
2022-09-06T15:15:32.985Z,939.38
2022-09-06T15:16:32.918Z,984.38
2022-09-06T15:17:32.896Z,1001.25
2022-09-06T15:18:32.899Z,860.62
2022-09-06T15:19:32.889Z,888.75
2022-09-06T15:20:32.870Z,1029.38
2022-09-06T15:21:32.837Z,956.25
2022-09-06T15:22:32.858Z,933.75
2022-09-06T15:23:32.826Z,905.62
2022-09-06T15:24:32.816Z,894.38
2022-09-06T15:25:32.802Z,894.38
2022-09-06T15:26:35.790Z,894.38
2022-09-06T15:27:32.792Z,871.88
2022-09-06T15:28:32.770Z,871.88
2022-09-06T15:29:32.799Z,871.88
2022-09-06T15:30:32.752Z,900.00
2022-09-06T15:31:32.834Z,1057.50
2022-09-06T15:32:32.720Z,950.62
2022-09-06T15:33:32.710Z,883.12
2022-09-06T15:34:32.702Z,945.00
2022-09-06T15:35:32.694Z,990.00
2022-09-06T15:36:32.685Z,1023.75
2022-09-06T15:37:32.673Z,1018.12
2022-09-06T15:38:32.662Z,1001.25
2022-09-06T15:39:32.681Z,888.75
2022-09-06T15:40:32.643Z,843.75
2022-09-06T15:41:35.643Z,821.25
2022-09-06T15:42:32.634Z,855.00
2022-09-06T15:43:32.607Z,978.75
2022-09-06T15:44:32.607Z,1006.88
2022-09-06T15:45:32.587Z,905.62
2022-09-06T15:46:32.613Z,933.75
2022-09-06T15:47:32.662Z,894.38
2022-09-06T15:48:32.559Z,871.88
2022-09-06T15:49:32.537Z,838.12
2022-09-06T15:50:50.193Z,753.75
2022-09-06T15:51:33.538Z,725.62
2022-09-06T15:52:32.510Z,618.75
2022-09-06T15:53:32.498Z,607.50
2022-09-06T15:54:32.492Z,601.88
2022-09-06T15:55:32.596Z,607.50
2022-09-06T15:56:35.472Z,624.38
2022-09-06T15:57:32.478Z,691.88
2022-09-06T15:58:32.451Z,663.75
2022-09-06T15:59:32.440Z,641.25
2022-09-06T16:00:32.431Z,618.75
2022-09-06T16:01:32.451Z,517.50
2022-09-06T16:02:32.440Z,466.88
2022-09-06T16:03:32.392Z,444.38
2022-09-06T16:04:32.384Z,433.12
2022-09-06T16:06:33.363Z,416.25
2022-09-06T16:07:32.356Z,410.62
2022-09-06T16:08:32.344Z,399.38
2022-09-06T16:09:32.326Z,393.75
2022-09-06T16:10:32.317Z,382.50
2022-09-06T16:11:35.306Z,371.25
2022-09-06T16:12:32.318Z,360.00
2022-09-06T16:13:32.286Z,348.75
2022-09-06T16:14:32.382Z,337.50
2022-09-06T16:15:32.271Z,331.88
2022-09-06T16:16:32.282Z,331.88
2022-09-06T16:17:32.240Z,337.50
2022-09-06T16:18:32.275Z,343.12
2022-09-06T16:19:32.230Z,343.12
2022-09-06T16:20:33.525Z,343.12
2022-09-06T16:21:32.291Z,343.12
2022-09-06T16:22:32.194Z,337.50
2022-09-06T16:23:32.240Z,326.25
2022-09-06T16:24:32.185Z,315.00
2022-09-06T16:25:32.151Z,298.12
2022-09-06T16:26:35.155Z,286.88
2022-09-06T16:27:32.155Z,270.00
2022-09-06T16:28:32.132Z,253.12
2022-09-06T16:29:32.154Z,236.25
2022-09-06T16:30:32.146Z,225.00
2022-09-06T16:31:35.270Z,213.75
2022-09-06T16:32:32.095Z,202.50
2022-09-06T16:33:32.207Z,196.88
2022-09-06T16:34:32.075Z,191.25
2022-09-06T16:35:32.064Z,185.62
2022-09-06T16:36:32.055Z,174.38
2022-09-06T16:37:32.030Z,163.12
2022-09-06T16:38:32.037Z,157.50
2022-09-06T16:39:32.091Z,151.88
2022-09-06T16:40:31.999Z,151.88
2022-09-06T16:41:34.991Z,151.88
2022-09-06T16:42:32.001Z,163.12
2022-09-06T16:43:31.989Z,174.38
2022-09-06T16:44:31.966Z,185.62
2022-09-06T16:45:31.953Z,196.88
2022-09-06T16:46:32.069Z,213.75
2022-09-06T16:47:31.936Z,225.00
2022-09-06T16:48:31.937Z,241.88
2022-09-06T16:49:31.959Z,258.75
2022-09-06T16:50:31.901Z,270.00
2022-09-06T16:51:31.890Z,286.88
2022-09-06T16:52:31.876Z,298.12
2022-09-06T16:53:31.864Z,309.38
2022-09-06T16:54:31.871Z,315.00
2022-09-06T16:55:31.855Z,315.00
2022-09-06T16:56:34.846Z,315.00
2022-09-06T16:57:31.830Z,315.00
2022-09-06T16:58:31.815Z,315.00
2022-09-06T16:59:31.804Z,315.00
2022-09-06T17:00:31.826Z,309.38
2022-09-06T17:01:31.895Z,309.38
2022-09-06T17:02:31.791Z,309.38
2022-09-06T17:03:31.770Z,298.12
2022-09-06T17:04:31.750Z,292.50
2022-09-06T17:05:31.756Z,281.25
2022-09-06T17:06:31.733Z,275.62
2022-09-06T17:07:31.708Z,264.38
2022-09-06T17:08:31.697Z,253.12
2022-09-06T17:09:31.692Z,236.25
2022-09-06T17:10:31.681Z,230.62
2022-09-06T17:11:34.777Z,219.38
2022-09-06T17:12:31.681Z,213.75
2022-09-06T17:13:31.641Z,202.50
2022-09-06T17:14:31.671Z,196.88
2022-09-06T17:15:31.638Z,185.62
2022-09-06T17:16:31.704Z,180.00
2022-09-06T17:17:31.611Z,174.38
2022-09-06T17:18:31.600Z,168.75
2022-09-06T17:19:31.594Z,163.12
2022-09-06T17:20:31.575Z,151.88
2022-09-06T17:21:31.565Z,151.88
2022-09-06T17:22:31.606Z,146.25
2022-09-06T17:23:31.552Z,140.62
2022-09-06T17:24:31.545Z,135.00
2022-09-06T17:25:31.526Z,135.00
2022-09-06T17:26:34.533Z,129.38
2022-09-06T17:27:31.611Z,123.75
2022-09-06T17:28:31.496Z,112.50
2022-09-06T17:29:31.491Z,106.88
2022-09-06T17:30:31.528Z,101.25
2022-09-06T17:31:31.581Z,90.00
2022-09-06T17:32:31.461Z,90.00
2022-09-06T17:33:31.550Z,84.38
2022-09-06T17:34:31.431Z,78.75
2022-09-06T17:35:31.410Z,78.75
2022-09-06T17:36:31.412Z,73.12
2022-09-06T17:37:31.388Z,67.50
2022-09-06T17:38:31.377Z,67.50
2022-09-06T17:39:31.432Z,61.88
2022-09-06T17:40:31.348Z,56.25
2022-09-06T17:41:34.356Z,56.25
2022-09-06T17:42:31.353Z,50.62
2022-09-06T17:43:31.343Z,45.00
2022-09-06T17:44:31.432Z,45.00
2022-09-06T17:45:31.356Z,39.38
2022-09-06T17:46:31.476Z,39.38
2022-09-06T17:47:31.331Z,33.75
2022-09-06T17:48:31.277Z,33.75
2022-09-06T17:49:31.300Z,28.12
2022-09-06T17:50:31.327Z,28.12
2022-09-06T17:51:31.289Z,22.50
2022-09-06T17:52:31.243Z,22.50
2022-09-06T17:53:31.234Z,16.88
2022-09-06T17:54:31.236Z,16.88
2022-09-06T17:55:31.250Z,11.25
2022-09-06T17:56:34.206Z,11.25
2022-09-06T17:57:31.205Z,11.25
2022-09-06T17:58:31.168Z,11.25
2022-09-06T17:59:35.069Z,5.62
2022-09-06T18:00:31.151Z,5.62
2022-09-06T18:01:31.215Z,5.62
2022-09-06T18:02:31.131Z,5.62
2022-09-06T18:03:31.109Z,5.62
2022-09-06T18:04:31.243Z,5.62
2022-09-06T18:05:31.114Z,0.00
2022-09-06T18:06:31.091Z,0.00
2022-09-06T18:07:31.084Z,0.00
2022-09-06T18:08:31.076Z,0.00
2022-09-06T18:09:31.184Z,0.00
2022-09-06T18:10:31.057Z,0.00
2022-09-06T18:11:34.033Z,0.00
2022-09-06T18:12:31.034Z,0.00
2022-09-06T18:13:31.006Z,0.00
2022-09-06T18:14:31.002Z,0.00
2022-09-06T18:15:30.988Z,0.00
2022-09-06T18:16:31.066Z,0.00
2022-09-06T18:17:30.975Z,0.00
2022-09-06T18:18:30.988Z,0.00
2022-09-06T18:19:30.954Z,0.00
2022-09-06T18:20:30.976Z,0.00
2022-09-06T18:21:30.949Z,0.00
2022-09-06T18:22:30.916Z,0.00
2022-09-06T18:23:30.917Z,0.00
2022-09-06T18:24:30.925Z,0.00
2022-09-06T18:25:30.950Z,0.00
2022-09-06T18:26:33.888Z,0.00
2022-09-06T18:27:30.981Z,0.00
2022-09-06T18:28:30.858Z,0.00
2022-09-06T18:29:30.937Z,0.00
2022-09-06T18:30:30.881Z,0.00
2022-09-06T18:31:30.968Z,0.00
2022-09-06T18:32:30.867Z,0.00
2022-09-06T18:33:30.890Z,0.00
2022-09-06T18:34:30.851Z,0.00
2022-09-06T18:35:30.832Z,0.00
2022-09-06T18:36:32.361Z,0.00
2022-09-06T18:37:30.822Z,0.00
2022-09-06T18:38:30.863Z,0.00
2022-09-06T18:39:30.840Z,0.00
2022-09-06T18:40:30.784Z,0.00
2022-09-06T18:41:33.803Z,0.00
2022-09-06T18:42:30.777Z,0.00
2022-09-06T18:43:30.938Z,0.00
2022-09-06T18:44:32.244Z,0.00
2022-09-06T18:45:30.774Z,0.00
2022-09-06T18:46:30.732Z,0.00
2022-09-06T18:47:30.710Z,0.00
2022-09-06T18:48:30.800Z,0.00
2022-09-06T18:49:30.688Z,0.00
2022-09-06T18:50:30.670Z,0.00
2022-09-06T18:51:30.672Z,0.00
2022-09-06T18:52:30.649Z,0.00
2022-09-06T18:53:30.814Z,0.00
2022-09-06T18:54:30.673Z,0.00
2022-09-06T18:55:30.628Z,0.00
2022-09-06T18:56:33.607Z,0.00
2022-09-06T18:57:30.619Z,0.00
2022-09-06T18:58:30.794Z,0.00
2022-09-06T18:59:30.580Z,0.00
2022-09-06T19:00:30.577Z,0.00
2022-09-06T19:01:30.760Z,0.00
2022-09-06T19:02:30.582Z,0.00
2022-09-06T19:03:30.542Z,0.00
2022-09-06T19:04:30.635Z,0.00
2022-09-06T19:05:30.516Z,0.00
2022-09-06T19:06:30.503Z,0.00
2022-09-06T19:07:30.499Z,0.00
2022-09-06T19:08:30.551Z,0.00
2022-09-06T19:09:30.518Z,0.00
2022-09-06T19:10:30.474Z,0.00
2022-09-06T19:11:33.455Z,0.00
2022-09-06T19:12:30.461Z,0.00
2022-09-06T19:13:30.442Z,0.00
2022-09-06T19:14:30.458Z,0.00
2022-09-06T19:15:30.415Z,0.00
2022-09-06T19:16:30.431Z,0.00
2022-09-06T19:17:30.389Z,0.00
2022-09-06T19:18:30.379Z,0.00
2022-09-06T19:19:30.400Z,0.00
2022-09-06T19:20:30.358Z,0.00
2022-09-06T19:21:30.357Z,0.00
2022-09-06T19:22:31.339Z,0.00
2022-09-06T19:23:30.324Z,0.00
2022-09-06T19:24:30.350Z,0.00
2022-09-06T19:25:30.302Z,0.00
2022-09-06T19:26:33.296Z,0.00
2022-09-06T19:27:30.303Z,0.00
2022-09-06T19:28:30.430Z,0.00
2022-09-06T19:29:30.320Z,0.00
2022-09-06T19:30:30.259Z,0.00
2022-09-06T19:31:30.316Z,0.00
2022-09-06T19:32:30.241Z,0.00
2022-09-06T19:33:34.234Z,0.00
2022-09-06T19:34:30.257Z,0.00
2022-09-06T19:35:30.205Z,0.00
2022-09-06T19:36:30.200Z,0.00
2022-09-06T19:37:30.179Z,0.00
2022-09-06T19:38:47.228Z,0.00
2022-09-06T19:39:36.253Z,0.00
2022-09-06T19:40:30.145Z,0.00
2022-09-06T19:41:33.153Z,0.00
2022-09-06T19:42:30.156Z,0.00